createdAt,value
2019-02-17T00:01:08.957Z,60.40
2019-02-17T00:03:37.133Z,60.30
2019-02-17T00:06:05.429Z,60.50
2019-02-17T00:08:33.638Z,60.40
2019-02-17T00:11:01.789Z,60.40
2019-02-17T00:13:30.024Z,60.40
2019-02-17T00:15:58.170Z,60.30
2019-02-17T00:18:26.393Z,61.40
2019-02-17T00:20:54.542Z,60.30
2019-02-17T00:23:22.780Z,60.40
2019-02-17T00:25:50.992Z,60.60
2019-02-17T00:28:19.190Z,60.40
2019-02-17T00:30:47.366Z,60.50
2019-02-17T00:33:15.680Z,60.60
2019-02-17T00:35:43.829Z,60.80
2019-02-17T00:38:12.070Z,60.90
2019-02-17T00:40:40.219Z,60.80
2019-02-17T00:43:08.524Z,61.00
2019-02-17T00:45:36.700Z,60.90
2019-02-17T00:48:04.822Z,60.90
2019-02-17T00:50:33.077Z,61.00
2019-02-17T00:53:01.751Z,61.10
2019-02-17T00:55:29.965Z,61.30
2019-02-17T00:57:58.085Z,62.20
2019-02-17T01:00:26.274Z,61.40
2019-02-17T01:02:54.423Z,62.00
2019-02-17T01:05:22.636Z,61.60
2019-02-17T01:07:50.833Z,62.60
2019-02-17T01:10:19.016Z,62.10
2019-02-17T01:12:47.189Z,62.30
2019-02-17T01:15:15.363Z,62.40
2019-02-17T01:17:43.593Z,62.70
2019-02-17T01:20:11.747Z,62.70
2019-02-17T01:22:40.064Z,64.00
2019-02-17T01:25:08.295Z,63.20
2019-02-17T01:27:36.482Z,63.20
2019-02-17T01:30:05.772Z,63.60
2019-02-17T01:32:33.953Z,63.80
2019-02-17T01:35:02.160Z,64.00
2019-02-17T01:37:30.333Z,64.10
2019-02-17T01:39:58.468Z,64.30
2019-02-17T01:42:26.617Z,64.40
2019-02-17T01:44:54.788Z,64.40
2019-02-17T01:47:22.923Z,64.50
2019-02-17T01:49:51.060Z,64.60
2019-02-17T01:52:19.244Z,64.80
2019-02-17T01:54:47.363Z,64.80
2019-02-17T01:57:15.553Z,64.70
2019-02-17T01:59:43.689Z,64.80
2019-02-17T02:02:11.880Z,65.00
2019-02-17T02:04:40.084Z,65.00
2019-02-17T02:07:08.219Z,65.10
2019-02-17T02:09:36.408Z,65.20
2019-02-17T02:12:04.658Z,65.20
2019-02-17T02:14:32.869Z,65.20
2019-02-17T02:17:00.996Z,65.20
2019-02-17T02:19:29.183Z,65.40
2019-02-17T02:21:57.529Z,65.40
2019-02-17T02:24:25.643Z,65.50
2019-02-17T02:26:53.901Z,65.60
2019-02-17T02:29:22.208Z,65.80
2019-02-17T02:31:50.374Z,66.00
2019-02-17T02:34:18.545Z,66.20
2019-02-17T02:36:46.771Z,66.40
2019-02-17T02:39:14.981Z,66.20
2019-02-17T02:41:43.138Z,66.30
2019-02-17T02:44:11.283Z,66.50
2019-02-17T02:46:39.559Z,66.50
2019-02-17T02:49:07.758Z,66.50
2019-02-17T02:51:36.006Z,66.60
2019-02-17T02:54:04.159Z,66.70
2019-02-17T02:56:32.373Z,66.80
2019-02-17T02:59:03.017Z,66.90
2019-02-17T03:01:30.827Z,66.80
2019-02-17T03:03:59.051Z,66.90
2019-02-17T03:06:49.586Z,66.90
2019-02-17T03:09:17.732Z,67.80
2019-02-17T03:11:45.903Z,67.10
2019-02-17T03:14:14.049Z,67.00
2019-02-17T03:16:42.204Z,67.20
2019-02-17T03:19:10.408Z,67.20
2019-02-17T03:21:38.661Z,67.40
2019-02-17T03:24:06.867Z,68.30
2019-02-17T03:26:35.012Z,67.60
2019-02-17T03:29:03.151Z,67.70
2019-02-17T03:31:31.333Z,68.00
2019-02-17T03:33:59.604Z,67.90
2019-02-17T03:36:27.823Z,67.90
2019-02-17T03:38:56.003Z,68.20
2019-02-17T03:41:24.216Z,68.20
2019-02-17T03:43:52.481Z,68.40
2019-02-17T03:46:20.617Z,68.30
2019-02-17T03:48:48.828Z,68.50
2019-02-17T03:51:17.057Z,68.50
2019-02-17T03:53:45.239Z,68.40
2019-02-17T03:56:13.446Z,68.70
2019-02-17T03:58:41.705Z,68.60
2019-02-17T04:01:10.013Z,68.60
2019-02-17T04:03:38.166Z,68.50
2019-02-17T04:06:06.388Z,68.60
2019-02-17T04:08:34.588Z,68.60
2019-02-17T04:11:02.778Z,68.50
2019-02-17T04:13:30.911Z,68.40
2019-02-17T04:15:59.114Z,68.60
2019-02-17T04:18:27.541Z,68.50
2019-02-17T04:20:55.741Z,68.90
2019-02-17T04:23:31.440Z,68.90
2019-02-17T04:25:55.674Z,68.90
2019-02-17T04:28:24.046Z,68.90
2019-02-17T04:30:52.187Z,68.90
2019-02-17T04:33:20.402Z,69.10
2019-02-17T04:35:48.587Z,69.00
2019-02-17T04:38:16.770Z,69.00
2019-02-17T04:40:44.950Z,69.10
2019-02-17T04:43:13.158Z,69.30
2019-02-17T04:45:41.377Z,69.40
2019-02-17T04:48:09.672Z,69.60
2019-02-17T04:50:37.836Z,69.80
2019-02-17T04:53:06.034Z,69.80
2019-02-17T04:55:34.225Z,69.80
2019-02-17T04:58:02.334Z,69.80
2019-02-17T05:00:39.689Z,69.90
2019-02-17T05:03:00.630Z,69.90
2019-02-17T05:05:28.773Z,70.20
2019-02-17T05:07:56.957Z,70.40
2019-02-17T05:10:25.076Z,70.60
2019-02-17T05:12:53.459Z,71.00
2019-02-17T05:15:21.631Z,71.30
2019-02-17T05:17:49.950Z,71.60
2019-02-17T05:20:18.208Z,72.70
2019-02-17T05:22:46.403Z,72.00
2019-02-17T05:25:14.562Z,72.10
2019-02-17T05:27:42.756Z,72.40
2019-02-17T05:30:10.986Z,72.30
2019-02-17T05:32:39.145Z,72.30
2019-02-17T05:35:07.435Z,72.60
2019-02-17T05:37:35.682Z,72.70
2019-02-17T05:40:04.297Z,72.80
2019-02-17T05:42:32.458Z,72.90
2019-02-17T05:45:02.041Z,73.00
2019-02-17T05:47:30.230Z,73.10
2019-02-17T05:49:58.393Z,73.30
2019-02-17T05:52:26.584Z,73.30
2019-02-17T05:54:54.748Z,73.60
2019-02-17T05:57:23.017Z,73.70
2019-02-17T05:59:51.228Z,73.70
2019-02-17T06:02:19.458Z,73.60
2019-02-17T06:04:47.672Z,73.70
2019-02-17T06:07:15.963Z,73.80
2019-02-17T06:09:44.632Z,73.70
2019-02-17T06:12:12.790Z,73.60
2019-02-17T06:14:40.954Z,73.80
2019-02-17T06:17:09.194Z,73.90
2019-02-17T06:19:37.413Z,73.60
2019-02-17T06:22:05.639Z,73.60
2019-02-17T06:24:33.908Z,73.40
2019-02-17T06:27:02.034Z,73.10
2019-02-17T06:29:30.356Z,73.10
2019-02-17T06:31:58.601Z,73.10
2019-02-17T06:34:26.803Z,73.10
2019-02-17T06:36:55.070Z,73.00
2019-02-17T06:39:23.245Z,73.00
2019-02-17T06:41:51.438Z,72.80
2019-02-17T06:44:19.604Z,72.70
2019-02-17T06:46:52.405Z,72.50
2019-02-17T06:49:20.574Z,71.90
2019-02-17T06:51:48.756Z,70.80
2019-02-17T06:54:16.935Z,69.60
2019-02-17T06:57:07.572Z,67.70
2019-02-17T06:59:35.764Z,66.90
2019-02-17T07:02:03.928Z,65.80
2019-02-17T07:04:50.092Z,65.70
2019-02-17T07:07:18.218Z,66.00
2019-02-17T07:09:46.429Z,66.50
2019-02-17T07:12:17.605Z,66.90
2019-02-17T07:14:45.724Z,67.50
2019-02-17T07:17:13.928Z,67.90
2019-02-17T07:19:42.075Z,68.80
2019-02-17T07:22:10.429Z,69.20
2019-02-17T07:24:38.581Z,69.70
2019-02-17T07:27:06.825Z,70.00
2019-02-17T07:29:34.982Z,69.90
2019-02-17T07:32:03.172Z,69.70
2019-02-17T07:34:31.580Z,69.70
2019-02-17T07:36:59.781Z,69.60
2019-02-17T07:39:28.039Z,68.70
2019-02-17T07:41:56.348Z,68.30
2019-02-17T07:44:24.532Z,67.90
2019-02-17T07:46:52.792Z,67.40
2019-02-17T07:49:20.933Z,67.30
2019-02-17T07:51:49.128Z,66.80
2019-02-17T07:54:17.332Z,66.60
2019-02-17T07:56:45.578Z,66.80
2019-02-17T07:59:13.760Z,67.20
2019-02-17T08:01:45.440Z,67.70
2019-02-17T08:04:12.761Z,67.70
2019-02-17T08:06:41.033Z,68.00
2019-02-17T08:09:09.323Z,68.00
2019-02-17T08:11:39.547Z,68.20
2019-02-17T08:14:07.908Z,68.20
2019-02-17T08:16:36.120Z,68.50
2019-02-17T08:19:04.333Z,67.80
2019-02-17T08:21:32.705Z,67.40
2019-02-17T08:24:00.875Z,67.00
2019-02-17T08:26:29.095Z,66.10
2019-02-17T08:28:57.257Z,66.30
2019-02-17T08:31:25.709Z,67.00
2019-02-17T08:33:53.880Z,67.70
2019-02-17T08:36:22.073Z,68.10
2019-02-17T08:38:50.318Z,67.80
2019-02-17T08:41:18.490Z,68.20
2019-02-17T08:43:46.988Z,68.70
2019-02-17T08:46:15.330Z,68.60
2019-02-17T08:48:43.534Z,67.80
2019-02-17T08:51:11.720Z,66.10
2019-02-17T08:53:39.928Z,64.30
2019-02-17T08:56:08.229Z,63.20
2019-02-17T08:58:36.431Z,60.60
2019-02-17T09:01:04.685Z,59.20
2019-02-17T09:03:32.862Z,55.90
2019-02-17T09:06:01.053Z,53.60
2019-02-17T09:08:29.338Z,52.70
2019-02-17T09:10:57.617Z,48.50
2019-02-17T09:13:25.851Z,49.20
2019-02-17T09:15:54.102Z,49.50
2019-02-17T09:18:22.309Z,47.70
2019-02-17T09:20:50.528Z,47.30
2019-02-17T09:23:18.762Z,47.00
2019-02-17T09:25:46.961Z,45.40
2019-02-17T09:28:15.245Z,44.80
2019-02-17T09:30:43.429Z,45.00
2019-02-17T09:33:11.558Z,44.30
2019-02-17T09:35:39.828Z,46.10
2019-02-17T09:38:08.231Z,50.40
2019-02-17T09:40:36.624Z,53.90
2019-02-17T09:43:04.802Z,56.20
2019-02-17T09:45:33.040Z,57.50
2019-02-17T09:48:01.200Z,58.40
2019-02-17T09:50:29.384Z,59.40
2019-02-17T09:52:57.665Z,60.10
2019-02-17T09:55:25.813Z,61.60
2019-02-17T09:57:53.974Z,62.60
2019-02-17T10:00:22.138Z,63.40
2019-02-17T10:02:50.354Z,64.00
2019-02-17T10:05:18.537Z,64.20
2019-02-17T10:07:47.020Z,64.10
2019-02-17T10:10:15.666Z,65.10
2019-02-17T10:12:43.826Z,66.40
2019-02-17T10:15:12.405Z,66.60
2019-02-17T10:17:40.552Z,67.10
2019-02-17T10:20:09.662Z,67.50
2019-02-17T10:22:38.059Z,67.70
2019-02-17T10:25:06.262Z,67.70
2019-02-17T10:27:34.475Z,67.50
2019-02-17T10:30:02.952Z,67.60
2019-02-17T10:32:38.355Z,68.50
2019-02-17T10:35:01.224Z,69.10
2019-02-17T10:37:29.433Z,68.70
2019-02-17T10:39:58.025Z,68.20
2019-02-17T10:42:26.231Z,67.60
2019-02-17T10:44:54.475Z,67.80
2019-02-17T10:47:22.642Z,68.30
2019-02-17T10:49:50.892Z,68.90
2019-02-17T10:52:19.034Z,68.70
2019-02-17T10:54:47.244Z,69.00
2019-02-17T10:57:15.414Z,69.80
2019-02-17T10:59:43.651Z,69.50
2019-02-17T11:02:11.942Z,69.70
2019-02-17T11:04:40.120Z,69.80
2019-02-17T11:07:08.462Z,70.10
2019-02-17T11:09:36.822Z,70.10
2019-02-17T11:12:05.006Z,70.10
2019-02-17T11:14:33.166Z,70.30
2019-02-17T11:17:01.778Z,70.50
2019-02-17T11:19:29.942Z,70.50
2019-02-17T11:21:58.107Z,70.40
2019-02-17T11:24:26.393Z,70.30
2019-02-17T11:26:54.574Z,70.70
2019-02-17T11:29:22.761Z,71.60
2019-02-17T11:31:50.933Z,71.10
2019-02-17T11:34:19.177Z,71.40
2019-02-17T11:36:47.417Z,72.00
2019-02-17T11:39:19.235Z,71.80
2019-02-17T11:41:47.525Z,71.70
2019-02-17T11:44:15.844Z,72.10
2019-02-17T11:46:44.065Z,72.10
2019-02-17T11:49:12.240Z,72.00
2019-02-17T11:51:40.441Z,71.60
2019-02-17T11:54:08.739Z,71.40
2019-02-17T11:56:36.917Z,71.00
2019-02-17T11:59:05.303Z,71.00
2019-02-17T12:01:35.432Z,71.40
2019-02-17T12:04:04.162Z,71.50
2019-02-17T12:06:32.356Z,71.40
2019-02-17T12:09:01.456Z,72.10
2019-02-17T12:11:30.020Z,71.40
2019-02-17T12:13:58.199Z,71.40
2019-02-17T12:16:36.485Z,71.00
2019-02-17T12:18:56.808Z,70.60
2019-02-17T12:21:48.384Z,71.10
2019-02-17T12:24:22.406Z,71.20
2019-02-17T12:27:16.072Z,70.90
2019-02-17T12:29:46.941Z,70.90
2019-02-17T12:32:18.821Z,71.40
2019-02-17T12:34:47.034Z,72.50
2019-02-17T12:37:15.222Z,71.50
2019-02-17T12:39:43.381Z,71.70
2019-02-17T12:42:11.587Z,71.70
2019-02-17T12:44:39.747Z,71.60
2019-02-17T12:47:07.963Z,71.50
2019-02-17T12:49:36.253Z,71.60
2019-02-17T12:52:04.461Z,71.80
2019-02-17T12:54:32.646Z,71.70
2019-02-17T12:57:01.198Z,71.30
2019-02-17T12:59:29.676Z,71.40
2019-02-17T13:01:57.992Z,71.40
2019-02-17T13:04:26.164Z,71.50
2019-02-17T13:06:54.464Z,71.60
2019-02-17T13:09:22.672Z,71.60
2019-02-17T13:11:50.893Z,71.20
2019-02-17T13:14:19.152Z,70.50
2019-02-17T13:16:47.310Z,69.70
2019-02-17T13:19:15.537Z,69.50
2019-02-17T13:21:43.725Z,69.30
2019-02-17T13:24:11.929Z,69.10
2019-02-17T13:26:40.611Z,69.30
2019-02-17T13:29:08.891Z,70.50
2019-02-17T13:31:37.098Z,71.70
2019-02-17T13:34:05.461Z,71.40
2019-02-17T13:36:33.617Z,71.40
2019-02-17T13:39:02.007Z,71.40
2019-02-17T13:41:30.225Z,71.70
2019-02-17T13:43:58.417Z,72.00
2019-02-17T13:46:26.856Z,72.20
2019-02-17T13:48:54.999Z,72.30
2019-02-17T13:51:23.188Z,72.30
2019-02-17T13:53:51.383Z,72.20
2019-02-17T13:56:19.803Z,72.10
2019-02-17T13:58:47.927Z,71.70
2019-02-17T14:01:16.189Z,71.40
2019-02-17T14:03:48.770Z,71.60
2019-02-17T14:06:14.566Z,71.50
2019-02-17T14:08:42.818Z,71.20
2019-02-17T14:11:11.022Z,71.10
2019-02-17T14:13:39.291Z,71.00
2019-02-17T14:16:07.651Z,71.10
2019-02-17T14:18:35.877Z,71.10
2019-02-17T14:21:04.163Z,71.10
2019-02-17T14:23:32.322Z,71.30
2019-02-17T14:26:01.626Z,71.60
2019-02-17T14:28:29.816Z,71.90
2019-02-17T14:30:57.985Z,72.10
2019-02-17T14:33:26.203Z,72.60
2019-02-17T14:35:54.353Z,73.50
2019-02-17T14:38:22.728Z,74.00
2019-02-17T14:40:50.920Z,74.30
2019-02-17T14:43:19.177Z,74.40
2019-02-17T14:45:47.358Z,74.60
2019-02-17T14:48:15.634Z,74.50
2019-02-17T14:50:43.931Z,74.20
2019-02-17T14:53:12.091Z,74.00
2019-02-17T14:55:40.376Z,73.80
2019-02-17T14:58:08.767Z,73.80
2019-02-17T15:00:37.047Z,74.00
2019-02-17T15:03:05.263Z,74.00
2019-02-17T15:05:33.461Z,73.80
2019-02-17T15:08:02.062Z,74.60
2019-02-17T15:10:30.219Z,74.70
2019-02-17T15:12:58.573Z,74.90
2019-02-17T15:15:26.778Z,74.90
2019-02-17T15:17:54.991Z,74.60
2019-02-17T15:20:23.549Z,74.30
2019-02-17T15:22:51.823Z,74.20
2019-02-17T15:25:20.050Z,74.40
2019-02-17T15:27:48.266Z,74.70
2019-02-17T15:30:17.942Z,74.80
2019-02-17T15:32:46.358Z,75.00
2019-02-17T15:35:14.531Z,75.40
2019-02-17T15:37:42.802Z,75.40
2019-02-17T15:40:11.088Z,75.40
2019-02-17T15:42:39.665Z,75.30
2019-02-17T15:45:08.790Z,76.30
2019-02-17T15:47:37.034Z,75.40
2019-02-17T15:50:06.675Z,75.50
2019-02-17T15:52:34.872Z,75.10
2019-02-17T15:55:03.127Z,74.80
2019-02-17T15:57:31.423Z,74.80
2019-02-17T15:59:59.734Z,74.80
2019-02-17T16:02:27.898Z,75.00
2019-02-17T16:04:56.092Z,74.70
2019-02-17T16:07:24.293Z,74.50
2019-02-17T16:09:52.448Z,74.40
2019-02-17T16:12:20.763Z,74.30
2019-02-17T16:14:48.909Z,74.10
2019-02-17T16:17:17.136Z,74.10
2019-02-17T16:19:47.710Z,73.90
2019-02-17T16:22:15.636Z,73.90
2019-02-17T16:24:44.481Z,73.80
2019-02-17T16:27:12.720Z,73.60
2019-02-17T16:29:40.973Z,73.60
2019-02-17T16:32:09.641Z,73.60
2019-02-17T16:34:38.807Z,73.40
2019-02-17T16:37:07.423Z,73.20
2019-02-17T16:39:35.654Z,73.30
2019-02-17T16:42:04.013Z,73.20
2019-02-17T16:44:32.168Z,73.20
2019-02-17T16:47:00.379Z,73.20
2019-02-17T16:49:28.522Z,73.10
2019-02-17T16:51:56.834Z,73.00
2019-02-17T16:54:25.125Z,72.80
2019-02-17T16:56:53.296Z,72.50
2019-02-17T16:59:21.640Z,72.00
2019-02-17T17:01:49.776Z,71.80
2019-02-17T17:04:18.030Z,71.60
2019-02-17T17:06:46.277Z,71.50
2019-02-17T17:09:14.565Z,71.60
2019-02-17T17:11:42.805Z,71.50
2019-02-17T17:14:11.086Z,71.50
2019-02-17T17:16:39.306Z,71.40
2019-02-17T17:19:07.624Z,71.60
2019-02-17T17:21:35.837Z,71.60
2019-02-17T17:24:04.019Z,71.60
2019-02-17T17:26:32.501Z,71.50
2019-02-17T17:29:01.985Z,71.60
2019-02-17T17:31:30.182Z,71.60
2019-02-17T17:34:01.561Z,71.60
2019-02-17T17:36:29.786Z,71.80
2019-02-17T17:38:58.013Z,71.80
2019-02-17T17:41:26.239Z,71.60
2019-02-17T17:43:54.411Z,71.60
2019-02-17T17:46:22.619Z,71.70
2019-02-17T17:48:50.783Z,72.20
2019-02-17T17:51:18.981Z,72.80
2019-02-17T17:53:47.151Z,73.20
2019-02-17T17:56:15.360Z,73.30
2019-02-17T17:58:43.531Z,73.60
2019-02-17T18:01:11.763Z,73.60
2019-02-17T18:03:40.072Z,73.60
2019-02-17T18:06:08.327Z,73.80
2019-02-17T18:08:36.530Z,73.80
2019-02-17T18:11:04.667Z,73.80
2019-02-17T18:13:32.894Z,73.70
2019-02-17T18:16:01.129Z,73.90
2019-02-17T18:18:29.350Z,74.10
2019-02-17T18:20:57.564Z,74.30
2019-02-17T18:23:25.749Z,74.30
2019-02-17T18:25:54.049Z,74.80
2019-02-17T18:28:22.252Z,75.30
2019-02-17T18:30:50.491Z,75.50
2019-02-17T18:33:18.850Z,75.50
2019-02-17T18:35:47.084Z,75.80
2019-02-17T18:38:15.317Z,75.70
2019-02-17T18:40:47.179Z,75.60
2019-02-17T18:43:13.619Z,75.40
2019-02-17T18:45:41.762Z,75.20
2019-02-17T18:48:09.944Z,75.50
2019-02-17T18:50:38.123Z,75.60
2019-02-17T18:53:06.258Z,75.70
2019-02-17T18:55:34.483Z,75.90
2019-02-17T18:58:02.737Z,75.90
2019-02-17T19:00:30.987Z,75.40
2019-02-17T19:02:59.158Z,74.60
2019-02-17T19:05:32.102Z,74.70
2019-02-17T19:07:57.461Z,75.30
2019-02-17T19:10:25.651Z,75.30
2019-02-17T19:12:53.850Z,75.50
2019-02-17T19:15:22.081Z,76.00
2019-02-17T19:17:50.358Z,76.20
2019-02-17T19:20:19.136Z,76.30
2019-02-17T19:22:47.333Z,76.20
2019-02-17T19:25:15.485Z,75.80
2019-02-17T19:27:43.724Z,75.80
2019-02-17T19:30:13.692Z,75.60
2019-02-17T19:32:41.998Z,75.40
2019-02-17T19:35:11.461Z,74.90
2019-02-17T19:37:39.697Z,75.00
2019-02-17T19:40:09.329Z,74.80
2019-02-17T19:42:37.596Z,74.80
2019-02-17T19:45:07.369Z,74.70
2019-02-17T19:47:35.526Z,74.40
2019-02-17T19:50:04.131Z,74.50
2019-02-17T19:52:32.344Z,74.40
2019-02-17T19:55:02.531Z,74.40
2019-02-17T19:57:30.726Z,74.50
2019-02-17T19:59:58.914Z,74.20
2019-02-17T20:02:46.598Z,74.10
2019-02-17T20:05:17.065Z,74.00
2019-02-17T20:07:45.243Z,73.50
2019-02-17T20:10:13.408Z,73.70
2019-02-17T20:12:41.644Z,73.70
2019-02-17T20:15:09.824Z,73.60
2019-02-17T20:17:38.667Z,73.80
2019-02-17T20:20:06.984Z,73.80
2019-02-17T20:22:35.184Z,73.70
2019-02-17T20:25:03.504Z,73.50
2019-02-17T20:27:31.767Z,73.30
2019-02-17T20:29:59.945Z,73.20
2019-02-17T20:32:28.121Z,73.10
2019-02-17T20:34:56.798Z,73.10
2019-02-17T20:37:25.491Z,73.30
2019-02-17T20:39:53.722Z,73.40
2019-02-17T20:42:22.187Z,73.30
2019-02-17T20:44:50.560Z,73.00
2019-02-17T20:47:18.709Z,73.30
2019-02-17T20:49:46.935Z,73.50
2019-02-17T20:52:15.137Z,73.20
2019-02-17T20:54:43.416Z,73.10
2019-02-17T20:57:11.608Z,73.30
2019-02-17T20:59:39.774Z,73.50
2019-02-17T21:02:08.518Z,73.50
2019-02-17T21:04:36.735Z,73.60
2019-02-17T21:07:04.994Z,73.40
2019-02-17T21:09:33.163Z,73.30
2019-02-17T21:12:01.502Z,72.60
2019-02-17T21:14:29.752Z,73.30
2019-02-17T21:16:58.053Z,73.30
2019-02-17T21:19:26.262Z,73.30
2019-02-17T21:21:54.500Z,73.40
2019-02-17T21:24:22.699Z,73.40
2019-02-17T21:26:50.834Z,73.30
2019-02-17T21:29:19.741Z,73.20
2019-02-17T21:31:48.041Z,73.00
2019-02-17T21:34:16.173Z,73.00
2019-02-17T21:36:44.310Z,73.20
2019-02-17T21:39:12.552Z,73.00
2019-02-17T21:41:40.716Z,72.90
2019-02-17T21:44:09.102Z,72.90
2019-02-17T21:46:37.318Z,73.00
2019-02-17T21:49:05.525Z,73.20
2019-02-17T21:51:33.756Z,73.40
2019-02-17T21:54:01.905Z,73.40
2019-02-17T21:56:30.171Z,73.30
2019-02-17T21:58:58.433Z,73.40
2019-02-17T22:01:26.583Z,73.30
2019-02-17T22:03:54.778Z,73.30
2019-02-17T22:06:31.332Z,73.30
2019-02-17T22:08:53.100Z,73.80
2019-02-17T22:11:21.374Z,73.80
2019-02-17T22:13:49.543Z,73.90
2019-02-17T22:16:20.191Z,74.20
2019-02-17T22:18:48.245Z,74.30
2019-02-17T22:21:16.491Z,74.30
2019-02-17T22:23:44.691Z,74.50
2019-02-17T22:26:12.897Z,74.70
2019-02-17T22:28:41.186Z,75.20
2019-02-17T22:31:09.509Z,75.30
2019-02-17T22:33:37.728Z,75.80
2019-02-17T22:36:05.943Z,76.50
2019-02-17T22:38:34.146Z,76.40
2019-02-17T22:41:02.657Z,76.30
2019-02-17T22:43:30.968Z,76.50
2019-02-17T22:45:59.138Z,76.10
2019-02-17T22:48:27.358Z,76.90
2019-02-17T22:50:55.631Z,76.50
2019-02-17T22:53:23.835Z,77.10
2019-02-17T22:55:52.045Z,77.50
2019-02-17T22:58:20.254Z,77.20
2019-02-17T23:00:58.400Z,77.10
2019-02-17T23:03:27.091Z,77.00
2019-02-17T23:05:55.286Z,77.10
2019-02-17T23:08:23.573Z,77.00
2019-02-17T23:10:51.750Z,76.90
2019-02-17T23:13:19.913Z,76.80
2019-02-17T23:15:48.164Z,77.20
2019-02-17T23:18:16.303Z,77.30
2019-02-17T23:20:44.565Z,77.20
2019-02-17T23:23:12.729Z,77.10
2019-02-17T23:25:40.855Z,77.20
2019-02-17T23:28:09.074Z,77.30
2019-02-17T23:30:37.647Z,77.60
2019-02-17T23:33:05.983Z,77.40
2019-02-17T23:35:34.203Z,77.40
2019-02-17T23:38:02.442Z,77.50
2019-02-17T23:40:30.702Z,77.60
2019-02-17T23:42:58.843Z,77.70
2019-02-17T23:45:27.209Z,77.80
2019-02-17T23:47:55.419Z,78.20
2019-02-17T23:50:23.643Z,78.40
2019-02-17T23:52:54.531Z,78.40
2019-02-17T23:55:22.318Z,78.50
2019-02-17T23:57:51.022Z,78.40
